Los Angeles, California
Traffic Map
Current Weather Conditions
Los Angeles, California
Clear
Clear
49°
Feels Like: 49°
Wind Chill: 49° Ceiling: Unl
Heat Index: 49° Visibility: 10mi
Dew Point: 37° Wind: 0mph
Humidity: 64% Direction: ° ()
Pressure: 29.94in Gusts: 0mph
Raw Report DataKCQT 281247Z AUTO 00000KT 10SM CLR 09/03 A2994 RMK AO2 SLP137 T00940028
Traffic Incident Summary
Active as of:
Severity:
Category:
InformationThere was an issue retrieving the traffic information for this location. Please try a different location or try again shortly.
Advertisements
Track Severe Weather on mobile